createdAt,value
2019-04-14T00:02:49.556Z,5.82
2019-04-14T00:05:53.965Z,5.79
2019-04-14T00:08:56.498Z,5.77
2019-04-14T00:11:59.115Z,5.79
2019-04-14T00:15:02.408Z,5.80
2019-04-14T00:18:05.455Z,5.78
2019-04-14T00:21:08.716Z,5.83
2019-04-14T00:24:11.664Z,5.85
2019-04-14T00:27:14.883Z,5.82
2019-04-14T00:30:18.766Z,5.83
2019-04-14T00:33:23.551Z,5.84
2019-04-14T00:36:28.377Z,5.87
2019-04-14T00:39:47.174Z,5.89
2019-04-14T00:42:52.203Z,5.94
2019-04-14T00:46:00.929Z,5.93
2019-04-14T00:49:02.844Z,5.94
2019-04-14T00:52:05.756Z,5.95
2019-04-14T00:55:08.309Z,5.94
2019-04-14T00:58:10.409Z,5.97
2019-04-14T01:01:13.302Z,5.98
2019-04-14T01:04:16.530Z,5.97
2019-04-14T01:07:19.533Z,5.94
2019-04-14T01:10:21.803Z,5.97
2019-04-14T01:13:24.617Z,5.96
2019-04-14T01:16:28.069Z,6.01
2019-04-14T01:19:30.967Z,6.02
2019-04-14T01:22:33.540Z,6.06
2019-04-14T01:25:36.814Z,6.04
2019-04-14T01:28:39.688Z,6.04
2019-04-14T01:31:42.518Z,6.06
2019-04-14T01:34:45.513Z,6.04
2019-04-14T01:37:48.655Z,6.02
2019-04-14T01:40:51.030Z,6.05
2019-04-14T01:43:53.907Z,6.05
2019-04-14T01:46:56.586Z,6.07
2019-04-14T01:49:59.507Z,6.06
2019-04-14T01:53:05.309Z,6.05
2019-04-14T01:56:18.736Z,6.03
2019-04-14T01:59:21.959Z,6.06
2019-04-14T02:02:27.013Z,6.07
2019-04-14T02:05:29.998Z,6.02
2019-04-14T02:08:32.891Z,6.06
2019-04-14T02:11:35.571Z,6.10
2019-04-14T02:14:38.701Z,6.07
2019-04-14T02:17:41.653Z,6.04
2019-04-14T02:20:44.713Z,6.06
2019-04-14T02:23:47.517Z,6.08
2019-04-14T02:26:50.521Z,6.12
2019-04-14T02:29:53.756Z,6.12
2019-04-14T02:33:28.822Z,6.10
2019-04-14T02:36:30.363Z,6.11
2019-04-14T02:39:38.601Z,6.05
2019-04-14T02:51:54.055Z,6.01
2019-04-14T02:57:55.506Z,6.04
2019-04-14T03:10:16.316Z,6.06
2019-04-14T03:16:21.722Z,6.01
2019-04-14T03:19:29.891Z,6.05
2019-04-14T03:22:53.500Z,6.04
2019-04-14T03:25:46.896Z,6.07
2019-04-14T03:28:58.960Z,6.06
2019-04-14T03:32:23.648Z,6.05
2019-04-14T03:35:42.969Z,6.05
2019-04-14T03:38:18.506Z,6.03
2019-04-14T03:41:25.813Z,6.01
2019-04-14T03:50:29.173Z,6.03
2019-04-14T03:56:46.333Z,6.10
2019-04-14T03:59:49.969Z,6.11
2019-04-14T04:02:53.306Z,6.07
2019-04-14T04:05:56.412Z,6.03
2019-04-14T04:08:59.681Z,6.03
2019-04-14T04:12:03.137Z,6.10
2019-04-14T04:15:06.710Z,6.14
2019-04-14T04:18:26.583Z,6.12
2019-04-14T04:21:33.445Z,6.12
2019-04-14T04:24:38.892Z,6.12
2019-04-14T04:27:44.016Z,6.14
2019-04-14T04:30:51.614Z,6.17
2019-04-14T04:34:01.118Z,6.14
2019-04-14T04:37:05.830Z,6.12
2019-04-14T04:40:16.347Z,6.08
2019-04-14T04:43:19.009Z,6.06
2019-04-14T04:46:22.025Z,6.08
2019-04-14T04:49:27.382Z,6.12
2019-04-14T04:52:28.419Z,6.18
2019-04-14T04:55:30.674Z,6.23
2019-04-14T04:58:32.846Z,6.31
2019-04-14T05:01:34.935Z,6.37
2019-04-14T05:04:37.286Z,6.41
2019-04-14T05:07:40.547Z,6.43
2019-04-14T05:10:44.366Z,6.45
2019-04-14T05:13:48.973Z,6.48
2019-04-14T05:16:51.319Z,6.55
2019-04-14T05:19:54.042Z,6.67
2019-04-14T05:22:57.256Z,6.74
2019-04-14T05:26:00.542Z,6.87
2019-04-14T05:29:03.607Z,7.03
2019-04-14T05:32:08.765Z,7.11
2019-04-14T05:35:12.005Z,7.14
2019-04-14T05:38:14.739Z,7.26
2019-04-14T05:41:17.910Z,7.37
2019-04-14T05:44:20.755Z,7.43
2019-04-14T05:47:23.831Z,7.59
2019-04-14T05:50:27.192Z,7.61
2019-04-14T05:53:30.444Z,7.68
2019-04-14T05:56:35.050Z,7.78
2019-04-14T05:59:37.532Z,7.84
2019-04-14T06:02:40.004Z,7.93
2019-04-14T06:05:42.851Z,8.02
2019-04-14T06:08:45.183Z,8.20
2019-04-14T06:11:47.106Z,8.39
2019-04-14T06:14:49.043Z,8.44
2019-04-14T06:17:51.063Z,8.54
2019-04-14T06:20:53.091Z,8.80
2019-04-14T06:23:55.146Z,8.96
2019-04-14T06:26:57.044Z,9.27
2019-04-14T06:30:00.904Z,9.49
2019-04-14T06:33:07.824Z,9.64
2019-04-14T06:36:23.660Z,9.93
2019-04-14T06:39:27.595Z,10.22
2019-04-14T06:42:29.618Z,10.76
2019-04-14T06:45:31.617Z,11.28
2019-04-14T06:48:33.534Z,11.71
2019-04-14T06:51:35.561Z,12.57
2019-04-14T06:54:37.574Z,13.50
2019-04-14T06:57:39.483Z,13.82
2019-04-14T07:00:41.451Z,13.99
2019-04-14T07:03:44.837Z,13.93
2019-04-14T07:06:46.804Z,13.71
2019-04-14T07:09:48.778Z,13.26
2019-04-14T07:12:50.694Z,12.58
2019-04-14T07:15:52.623Z,12.41
2019-04-14T07:18:54.641Z,12.20
2019-04-14T07:21:56.664Z,12.00
2019-04-14T07:24:58.692Z,11.87
2019-04-14T07:28:00.615Z,11.51
2019-04-14T07:31:10.141Z,11.28
2019-04-14T07:34:30.710Z,11.11
2019-04-14T07:37:43.813Z,10.99
2019-04-14T07:40:47.553Z,11.10
2019-04-14T07:43:55.710Z,11.31
2019-04-14T07:47:02.289Z,11.40
2019-04-14T07:50:17.101Z,11.53
2019-04-14T07:53:29.735Z,11.66
2019-04-14T07:56:33.503Z,11.60
2019-04-14T07:59:40.152Z,11.77
2019-04-14T08:02:47.021Z,11.71
2019-04-14T08:05:48.969Z,11.83
2019-04-14T08:08:50.892Z,12.14
2019-04-14T08:11:52.839Z,12.35
2019-04-14T08:14:54.780Z,12.42
2019-04-14T08:17:56.712Z,12.52
2019-04-14T08:20:58.793Z,12.89
2019-04-14T08:24:00.827Z,12.84
2019-04-14T08:27:02.833Z,12.92
2019-04-14T08:30:07.069Z,12.76
2019-04-14T08:33:09.085Z,12.79
2019-04-14T08:36:11.338Z,13.06
2019-04-14T08:39:13.338Z,13.37
2019-04-14T08:42:22.956Z,13.58
2019-04-14T08:45:41.557Z,13.85
2019-04-14T08:48:45.286Z,14.01
2019-04-14T08:52:05.691Z,14.43
2019-04-14T08:55:28.018Z,14.36
2019-04-14T08:58:47.241Z,14.44
2019-04-14T09:01:50.978Z,14.45
2019-04-14T09:05:07.153Z,14.44
2019-04-14T09:08:20.164Z,14.17
2019-04-14T09:11:23.991Z,14.41
2019-04-14T09:14:25.916Z,14.45
2019-04-14T09:17:29.155Z,14.18
2019-04-14T09:20:31.079Z,14.09
2019-04-14T09:23:33.111Z,13.91
2019-04-14T09:26:35.125Z,14.26
2019-04-14T09:29:37.032Z,14.52
2019-04-14T09:32:38.944Z,14.87
2019-04-14T09:35:40.938Z,15.04
2019-04-14T09:38:42.926Z,14.92
2019-04-14T09:41:44.898Z,14.95
2019-04-14T09:44:46.826Z,14.75
2019-04-14T09:47:48.847Z,14.65
2019-04-14T09:51:03.917Z,14.63
2019-04-14T09:53:55.784Z,14.39
2019-04-14T09:56:57.748Z,14.12
2019-04-14T09:59:59.739Z,13.84
2019-04-14T10:03:01.705Z,13.50
2019-04-14T10:06:03.744Z,13.19
2019-04-14T10:09:06.304Z,13.06
2019-04-14T10:12:08.451Z,13.14
2019-04-14T10:15:10.567Z,13.14
2019-04-14T10:18:12.951Z,13.14
2019-04-14T10:21:17.554Z,13.25
2019-04-14T10:24:18.851Z,13.34
2019-04-14T10:27:20.929Z,13.56
2019-04-14T10:30:22.927Z,13.68
2019-04-14T10:33:28.033Z,13.66
2019-04-14T10:36:30.061Z,13.76
2019-04-14T10:39:34.103Z,13.76
2019-04-14T10:42:36.062Z,13.87
2019-04-14T10:45:38.003Z,13.95
2019-04-14T10:48:39.976Z,14.15
2019-04-14T10:51:41.946Z,14.32
2019-04-14T10:54:43.873Z,14.24
2019-04-14T10:57:45.883Z,14.15
2019-04-14T11:00:47.811Z,14.36
2019-04-14T11:03:49.781Z,14.54
2019-04-14T11:07:04.539Z,14.64
2019-04-14T11:10:07.489Z,14.71
2019-04-14T11:13:09.480Z,14.66
2019-04-14T11:16:11.477Z,14.55
2019-04-14T11:19:13.440Z,14.72
2019-04-14T11:22:15.477Z,14.70
2019-04-14T11:25:17.490Z,14.68
2019-04-14T11:28:19.576Z,14.47
2019-04-14T11:31:40.085Z,14.41
2019-04-14T11:34:43.878Z,14.47
2019-04-14T11:37:50.671Z,14.45
2019-04-14T11:40:54.503Z,14.35
2019-04-14T11:43:56.446Z,14.22
2019-04-14T11:46:58.471Z,14.35
2019-04-14T11:50:00.388Z,14.47
2019-04-14T11:53:02.284Z,14.45
2019-04-14T11:56:05.090Z,14.23
2019-04-14T11:59:06.980Z,14.09
2019-04-14T12:02:10.797Z,13.90
2019-04-14T12:05:14.677Z,13.83
2019-04-14T12:08:35.089Z,14.06
2019-04-14T12:11:37.000Z,14.15
2019-04-14T12:14:38.931Z,14.34
2019-04-14T12:17:40.890Z,14.28
2019-04-14T12:20:43.084Z,14.40
2019-04-14T12:23:44.958Z,14.58
2019-04-14T12:26:46.941Z,14.40
2019-04-14T12:29:50.060Z,14.18
2019-04-14T12:32:52.272Z,14.05
2019-04-14T12:35:54.308Z,14.05
2019-04-14T12:38:56.793Z,14.02
2019-04-14T12:42:06.433Z,13.96
2019-04-14T12:45:11.639Z,14.09
2019-04-14T12:48:15.424Z,14.22
2019-04-14T12:51:20.601Z,14.26
2019-04-14T12:54:23.169Z,14.47
2019-04-14T12:57:38.971Z,14.51
2019-04-14T13:00:42.707Z,14.53
2019-04-14T13:03:44.696Z,14.43
2019-04-14T13:06:47.740Z,14.37
2019-04-14T13:09:49.770Z,14.39
2019-04-14T13:12:51.667Z,14.49
2019-04-14T13:15:54.271Z,14.48
2019-04-14T13:18:56.209Z,14.50
2019-04-14T13:21:58.228Z,14.44
2019-04-14T13:25:00.152Z,14.35
2019-04-14T13:28:03.661Z,14.28
2019-04-14T13:31:06.103Z,14.36
2019-04-14T13:34:08.140Z,14.36
2019-04-14T13:37:10.114Z,14.43
2019-04-14T13:40:12.600Z,14.42
2019-04-14T13:43:14.553Z,14.33
2019-04-14T13:46:16.493Z,14.30
2019-04-14T13:49:18.480Z,14.18
2019-04-14T13:52:20.515Z,14.20
2019-04-14T13:55:22.487Z,14.17
2019-04-14T13:58:24.455Z,14.16
2019-04-14T14:01:26.391Z,14.11
2019-04-14T14:04:29.350Z,14.15
2019-04-14T14:07:33.254Z,14.17
2019-04-14T14:10:36.036Z,14.14
2019-04-14T14:13:39.778Z,14.15
2019-04-14T14:16:49.871Z,14.14
2019-04-14T14:19:53.642Z,14.15
2019-04-14T14:23:14.004Z,14.24
2019-04-14T14:26:17.737Z,14.31
2019-04-14T14:29:19.676Z,14.27
2019-04-14T14:32:23.529Z,14.27
2019-04-14T14:35:25.590Z,14.22
2019-04-14T14:38:28.611Z,14.33
2019-04-14T14:41:30.714Z,14.35
2019-04-14T14:44:34.476Z,14.25
2019-04-14T14:47:36.439Z,14.26
2019-04-14T14:50:49.399Z,14.14
2019-04-14T14:53:51.381Z,14.06
2019-04-14T14:56:53.397Z,13.97
2019-04-14T14:59:55.313Z,13.95
2019-04-14T15:02:57.588Z,14.01
2019-04-14T15:05:59.595Z,14.13
2019-04-14T15:09:01.543Z,14.16
2019-04-14T15:12:05.364Z,14.16
2019-04-14T15:15:07.492Z,14.14
2019-04-14T15:18:09.397Z,14.19
2019-04-14T15:21:11.340Z,14.23
2019-04-14T15:24:13.321Z,14.20
2019-04-14T15:27:15.250Z,14.21
2019-04-14T15:30:20.203Z,14.17
2019-04-14T15:33:23.472Z,14.22
2019-04-14T15:36:25.400Z,14.22
2019-04-14T15:39:29.145Z,14.24
2019-04-14T15:42:31.124Z,14.29
2019-04-14T15:45:33.106Z,14.25
2019-04-14T15:48:37.893Z,14.20
2019-04-14T15:51:39.847Z,14.23
2019-04-14T15:54:41.941Z,14.23
2019-04-14T15:57:48.691Z,14.19
2019-04-14T16:00:52.535Z,14.16
2019-04-14T16:03:59.416Z,14.13
2019-04-14T16:07:03.203Z,14.04
2019-04-14T16:10:16.618Z,14.08
2019-04-14T16:13:23.250Z,14.11
2019-04-14T16:16:26.974Z,14.06
2019-04-14T16:19:42.481Z,14.01
2019-04-14T16:22:46.243Z,13.99
2019-04-14T16:25:50.921Z,13.92
2019-04-14T16:29:13.159Z,13.84
2019-04-14T16:32:35.765Z,13.76
2019-04-14T16:35:39.585Z,13.65
2019-04-14T16:38:42.807Z,13.51
2019-04-14T16:41:44.836Z,13.45
2019-04-14T16:44:48.680Z,13.40
2019-04-14T16:47:51.095Z,13.31
2019-04-14T16:50:55.368Z,13.25
2019-04-14T16:54:03.565Z,13.15
2019-04-14T16:57:29.016Z,13.07
2019-04-14T17:00:33.385Z,13.01
2019-04-14T17:03:35.835Z,12.95
2019-04-14T17:06:37.838Z,12.83
2019-04-14T17:09:40.346Z,12.73
2019-04-14T17:12:44.821Z,12.68
2019-04-14T17:15:50.309Z,12.59
2019-04-14T17:18:55.606Z,12.52
2019-04-14T17:22:02.637Z,12.41
2019-04-14T17:25:18.205Z,12.29
2019-04-14T17:28:40.635Z,12.20
2019-04-14T17:31:47.509Z,12.05
2019-04-14T17:34:58.968Z,11.88
2019-04-14T17:38:09.913Z,11.77
2019-04-14T17:41:13.701Z,11.62
2019-04-14T17:44:35.390Z,11.51
2019-04-14T17:47:52.642Z,11.39
2019-04-14T17:51:12.678Z,11.22
2019-04-14T17:54:28.344Z,11.16
2019-04-14T17:57:38.494Z,11.09
2019-04-14T18:00:55.545Z,11.01
2019-04-14T18:04:05.828Z,10.90
2019-04-14T18:07:12.373Z,10.85
2019-04-14T18:10:19.189Z,10.78
2019-04-14T18:13:36.141Z,10.69
2019-04-14T18:16:45.677Z,10.56
2019-04-14T18:19:54.153Z,10.46
2019-04-14T18:22:59.481Z,10.35
2019-04-14T18:26:01.634Z,10.26
2019-04-14T18:29:05.484Z,10.13
2019-04-14T18:32:19.054Z,10.06
2019-04-14T18:35:28.857Z,9.99
2019-04-14T18:38:43.661Z,9.95
2019-04-14T18:42:03.970Z,9.93
2019-04-14T18:45:26.601Z,9.88
2019-04-14T18:48:33.352Z,9.80
2019-04-14T18:51:40.330Z,9.69
2019-04-14T18:54:54.826Z,9.57
2019-04-14T18:58:02.162Z,9.50
2019-04-14T19:01:07.809Z,9.43
2019-04-14T19:04:09.785Z,9.40
2019-04-14T19:07:11.707Z,9.33
2019-04-14T19:10:19.206Z,9.26
2019-04-14T19:13:29.025Z,9.15
2019-04-14T19:16:39.273Z,9.10
2019-04-14T19:19:38.437Z,9.06
2019-04-14T19:22:41.637Z,9.03
2019-04-14T19:25:46.928Z,9.00
2019-04-14T19:28:48.914Z,8.94
2019-04-14T19:31:52.593Z,8.89
2019-04-14T19:34:54.605Z,8.82
2019-04-14T19:37:56.982Z,8.74
2019-04-14T19:41:02.866Z,8.71
2019-04-14T19:44:05.960Z,8.63
2019-04-14T19:47:07.950Z,8.57
2019-04-14T19:50:11.831Z,8.53
2019-04-14T19:53:14.339Z,8.43
2019-04-14T19:56:16.305Z,8.33
2019-04-14T19:59:19.834Z,8.26
2019-04-14T20:02:21.846Z,8.21
2019-04-14T20:05:23.865Z,8.18
2019-04-14T20:08:27.682Z,8.09
2019-04-14T20:11:32.344Z,8.01
2019-04-14T20:14:34.265Z,7.96
2019-04-14T20:17:50.102Z,7.88
2019-04-14T20:21:13.268Z,7.83
2019-04-14T20:24:17.246Z,7.80
2019-04-14T20:27:32.831Z,7.72
2019-04-14T20:30:38.420Z,7.64
2019-04-14T20:33:41.786Z,7.57
2019-04-14T20:36:45.052Z,7.51
2019-04-14T20:39:47.054Z,7.47
2019-04-14T20:42:49.724Z,7.38
2019-04-14T20:45:52.911Z,7.31
2019-04-14T20:48:56.150Z,7.23
2019-04-14T20:51:58.117Z,7.16
2019-04-14T20:55:00.132Z,7.09
2019-04-14T20:58:02.234Z,7.06
2019-04-14T21:01:07.164Z,6.99
2019-04-14T21:04:16.684Z,6.92
2019-04-14T21:07:20.425Z,6.83
2019-04-14T21:10:24.179Z,6.81
2019-04-14T21:13:31.881Z,6.77
2019-04-14T21:16:44.737Z,6.73
2019-04-14T21:19:48.508Z,6.70
2019-04-14T21:23:07.306Z,6.70
2019-04-14T21:26:11.139Z,6.69
2019-04-14T21:29:31.430Z,6.65
2019-04-14T21:32:35.152Z,6.63
2019-04-14T21:35:38.908Z,6.58
2019-04-14T21:38:59.501Z,6.53
2019-04-14T21:42:01.511Z,6.50
2019-04-14T21:45:05.979Z,6.37
2019-04-14T21:48:07.977Z,6.25
2019-04-14T21:51:09.944Z,6.15
2019-04-14T21:54:11.975Z,6.05
2019-04-14T21:57:18.822Z,5.97
2019-04-14T22:00:35.682Z,5.88
2019-04-14T22:03:53.546Z,5.82
2019-04-14T22:07:09.425Z,5.77
2019-04-14T22:10:19.522Z,5.72
2019-04-14T22:13:22.113Z,5.63
2019-04-14T22:16:24.153Z,5.52
2019-04-14T22:19:26.210Z,5.47
2019-04-14T22:22:28.206Z,5.41
2019-04-14T22:25:30.195Z,5.36
2019-04-14T22:28:32.143Z,5.33
2019-04-14T22:31:34.216Z,5.33
2019-04-14T22:34:36.149Z,5.32
2019-04-14T22:37:38.083Z,5.25
2019-04-14T22:40:41.134Z,5.24
2019-04-14T22:43:44.050Z,5.21
2019-04-14T22:46:46.060Z,5.17
2019-04-14T22:49:48.059Z,5.15
2019-04-14T22:52:50.021Z,5.13
2019-04-14T22:55:52.062Z,5.10
2019-04-14T22:58:54.015Z,5.05
2019-04-14T23:02:04.027Z,5.05
2019-04-14T23:05:08.424Z,5.04
2019-04-14T23:08:14.980Z,5.05
2019-04-14T23:11:18.856Z,5.00
2019-04-14T23:14:25.325Z,4.95
2019-04-14T23:17:34.952Z,4.87
2019-04-14T23:20:51.030Z,4.80
2019-04-14T23:24:14.064Z,4.73
2019-04-14T23:27:16.805Z,4.68
2019-04-14T23:30:18.787Z,4.61
2019-04-14T23:33:20.778Z,4.57
2019-04-14T23:36:22.707Z,4.55
2019-04-14T23:39:24.690Z,4.51
2019-04-14T23:42:26.676Z,4.46
2019-04-14T23:45:28.646Z,4.44
2019-04-14T23:48:30.612Z,4.40
2019-04-14T23:51:32.544Z,4.40
2019-04-14T23:54:34.458Z,4.38
2019-04-14T23:57:36.497Z,4.39
